Αρχική σελίδα
METAR-TAF:

METAR-TAF

Αεροδρόμια :

Πόλη του Κουβέιτ, Κουβέιτ

γεωγραφικό πλάτος: 29-13N, γεωγραφικό μήκος: 047-59E, υψόμετρο: 55 μ

Παρών καιρός

Η αναφορά έγινε 34 λεπτά πριν, στις 18:00 UTC
Άνεμος 4 kt από Α/NA
Θερμοκρασία 33°C
Υγρασία 63%
Πίεση 1006 hPa
Ορατότητα: 8000 μ
Καθαρός ουρανός

METAR: OKBK 191800Z 11004KT 8000 SKC 33/25 Q1006 NOSIG

Χρόνος: 21:34 (18:34 UTC)

Πρόγνωση Καιρού

Η αναφορά έγινε 1 ώρα και 49 λεπτά πριν, στις 16:45 UTC
Η πρόγνωση ισχύει από τις 19 στις 18 UTC έως τις 20 στις 24 UTC
Άνεμος 8 kt από Ν/NA
Ορατότητα: 6000 μ
Προσωρινά
από 19 στις 18 UTC έως τις 20 στις 04 UTC
Άνεμος 3 kt από μεταβλητές κατευθύνσεις
Ορατότητα: 1500 μ
Αχλής

TAF: OKBK 191645Z 1918/2024 15008KT 6000 NSC TEMPO 1918/2004 VRB03KT 1500 BR

Μετεωρολογικές αναφορές και προγνώσεις για περισσότερα από 4000 αεροδρόμια (δελτία METAR και TAF).

Οι διαθέσιμοι σταθμοί απεικονίζονται στο χάρτη με κίτρινες και κόκκινες κουκκίδες.

Μετακινήστε το ποντίκι πάνω από τις κουκκίδες για να δείτε το όνομα του σταθμού.

Στη συνέχεια, κάντε κλικ για να δείτε τις μετεωρολογικές αναφορές και τις προγνώσεις καιρού.

Για να αλλάξετε το χάρτη: κάντε κλικ στα πράσινα κουμπιά με τον μαύρο σταυρό για να ζουμάρετε, στο πράσινο κουμπί με την παύλα για να αφαιρέσετε το ζουμ ή στα πράσινα βέλη για να αντιπαραβάλλετε χάρτες.


METAR-TAF: